Time;durP1;ratioP1;P1;durP2;ratioP2;P2;SDS_P1;SDS_P2;PMS_P1;PMS_P2;Temp;Humidity;BMP_temperature;BMP_pressure;BME280_temperature;BME280_humidity;BME280_pressure;Samples;Min_cycle;Max_cycle;Signal;HPM_P1;HPM_P2
2023/08/23 02:01:23;;;;;;;10.45;6.43;;;;;;;;;;4595320;28;20069;-81
2023/08/23 02:03:56;;;;;;;9.95;6.15;;;;;;;;;;4240762;33;20079;-81
2023/08/23 02:06:22;;;;;;;11.52;6.62;;;;;;;;;;4219697;34;20523;-81
2023/08/23 02:08:51;;;;;;;10.57;7.28;;;;;;;;;;4191287;34;20115;-81
2023/08/23 02:11:17;;;;;;;9.20;7.18;;;;;;;;;;4183901;34;20823;-81
2023/08/23 02:13:43;;;;;;;10.93;7.90;;;;;;;;;;4180748;34;20061;-82
2023/08/23 02:16:09;;;;;;;13.48;7.43;;;;;;;;;;4183790;34;20063;-82
2023/08/23 02:18:35;;;;;;;21.42;8.15;;;;;;;;;;4182760;34;20076;-82
2023/08/23 02:21:01;;;;;;;15.30;7.47;;;;;;;;;;4183807;34;20469;-81
2023/08/23 02:23:27;;;;;;;11.65;7.82;;;;;;;;;;4199304;34;20090;-81
2023/08/23 02:25:53;;;;;;;33.15;8.88;;;;;;;;;;4207929;34;20084;-81
2023/08/23 02:28:20;;;;;;;23.02;8.40;;;;;;;;;;4211480;34;20054;-81
2023/08/23 02:30:46;;;;;;;13.70;8.65;;;;;;;;;;4205377;34;20081;-81
2023/08/23 02:33:12;;;;;;;18.95;9.18;;;;;;;;;;4208929;34;20065;-84
2023/08/23 02:35:43;;;;;;;16.85;8.38;;;;;;;;;;4198031;34;20444;-81
2023/08/23 02:38:16;;;;;;;11.50;8.32;;;;;;;;;;4208417;34;20930;-81
2023/08/23 02:40:42;;;;;;;11.18;8.50;;;;;;;;;;4234473;33;20545;-81
2023/08/23 02:43:08;;;;;;;13.43;8.90;;;;;;;;;;4249768;33;20050;-80
2023/08/23 02:45:37;;;;;;;18.48;9.23;;;;;;;;;;4252679;33;20459;-81
2023/08/23 02:48:04;;;;;;;13.40;8.10;;;;;;;;;;4252418;33;20531;-80
2023/08/23 02:50:30;;;;;;;15.32;8.20;;;;;;;;;;4224306;34;20366;-82
2023/08/23 02:52:57;;;;;;;14.20;8.18;;;;;;;;;;4225253;34;20664;-82
2023/08/23 02:55:23;;;;;;;10.57;7.87;;;;;;;;;;4220083;33;20042;-81
2023/08/23 02:57:49;;;;;;;12.80;8.48;;;;;;;;;;4208791;34;20082;-81
2023/08/23 03:00:15;;;;;;;12.88;7.05;;;;;;;;;;4210495;34;20368;-82
2023/08/23 03:02:42;;;;;;;14.55;7.40;;;;;;;;;;4209720;34;20059;-82
2023/08/23 03:05:08;;;;;;;9.25;6.70;;;;;;;;;;4211162;34;20086;-81
2023/08/23 03:07:34;;;;;;;9.23;6.37;;;;;;;;;;4209698;34;20031;-81
2023/08/23 03:10:00;;;;;;;11.00;6.78;;;;;;;;;;4210055;34;20581;-81
2023/08/23 03:12:27;;;;;;;8.52;5.93;;;;;;;;;;4209883;34;20063;-80
2023/08/23 03:14:53;;;;;;;8.88;5.90;;;;;;;;;;4210019;34;20055;-81
2023/08/23 03:17:19;;;;;;;9.60;6.45;;;;;;;;;;4211566;34;20059;-80
2023/08/23 03:19:45;;;;;;;12.10;6.75;;;;;;;;;;4211756;34;20065;-80
2023/08/23 03:22:11;;;;;;;12.45;6.97;;;;;;;;;;4224292;33;20091;-80
2023/08/23 03:24:37;;;;;;;12.93;6.40;;;;;;;;;;4217608;33;20086;-80
2023/08/23 03:27:04;;;;;;;13.27;5.60;;;;;;;;;;4211136;34;20104;-81
2023/08/23 03:29:29;;;;;;;11.02;6.70;;;;;;;;;;4211264;34;20370;-80
2023/08/23 03:31:56;;;;;;;7.60;6.10;;;;;;;;;;4212132;34;20055;-81
2023/08/23 03:34:22;;;;;;;11.25;6.78;;;;;;;;;;4228247;33;20136;-80
2023/08/23 03:36:48;;;;;;;10.52;6.15;;;;;;;;;;4239412;33;20059;-82
2023/08/23 03:39:14;;;;;;;9.90;6.68;;;;;;;;;;4240340;33;20068;-80
2023/08/23 03:41:41;;;;;;;12.00;5.93;;;;;;;;;;4245078;33;20055;-81
2023/08/23 03:44:06;;;;;;;14.18;6.80;;;;;;;;;;4247988;33;20038;-82
2023/08/23 03:46:33;;;;;;;11.63;7.07;;;;;;;;;;4240654;33;20217;-82
2023/08/23 03:48:59;;;;;;;15.98;7.97;;;;;;;;;;4243320;33;20054;-80
2023/08/23 03:51:25;;;;;;;13.93;7.45;;;;;;;;;;4238221;33;20047;-81
2023/08/23 03:53:51;;;;;;;15.63;8.15;;;;;;;;;;4205393;34;20074;-81
2023/08/23 03:56:17;;;;;;;11.12;7.47;;;;;;;;;;4209034;34;20100;-80
2023/08/23 03:58:43;;;;;;;13.05;7.32;;;;;;;;;;4208688;34;20047;-81
2023/08/23 04:01:10;;;;;;;24.40;7.82;;;;;;;;;;4209913;34;20941;-81
2023/08/23 04:03:36;;;;;;;10.98;6.95;;;;;;;;;;4208137;34;20390;-81
2023/08/23 04:06:02;;;;;;;10.77;7.40;;;;;;;;;;4194465;34;20056;-82
2023/08/23 04:08:28;;;;;;;12.50;8.23;;;;;;;;;;4195479;34;20059;-80
2023/08/23 04:10:55;;;;;;;8.65;6.93;;;;;;;;;;4192390;34;20385;-82
2023/08/23 04:13:21;;;;;;;15.32;7.20;;;;;;;;;;4196259;34;20158;-82
2023/08/23 04:15:47;;;;;;;10.02;8.00;;;;;;;;;;4195597;34;20090;-81
2023/08/23 04:18:13;;;;;;;12.65;7.97;;;;;;;;;;4195489;34;20430;-81
2023/08/23 04:20:40;;;;;;;12.52;6.28;;;;;;;;;;4194021;34;20047;-81
2023/08/23 04:23:07;;;;;;;10.18;6.62;;;;;;;;;;4192024;34;20039;-81
2023/08/23 04:25:33;;;;;;;9.32;7.10;;;;;;;;;;4195950;34;20120;-82
2023/08/23 04:28:00;;;;;;;12.00;8.15;;;;;;;;;;4181349;34;20032;-81
2023/08/23 04:30:26;;;;;;;9.82;7.65;;;;;;;;;;4185535;34;20081;-80
2023/08/23 04:32:53;;;;;;;10.75;7.43;;;;;;;;;;4222536;33;20050;-80
2023/08/23 04:35:19;;;;;;;12.37;7.40;;;;;;;;;;4225870;33;20054;-81
2023/08/23 04:37:46;;;;;;;10.65;7.60;;;;;;;;;;4223178;33;20102;-80
2023/08/23 04:40:13;;;;;;;9.75;7.60;;;;;;;;;;4221686;34;20487;-81
2023/08/23 04:42:39;;;;;;;11.20;8.00;;;;;;;;;;4210344;34;20070;-81
2023/08/23 04:45:05;;;;;;;8.98;6.28;;;;;;;;;;4224942;33;20069;-82
2023/08/23 04:47:32;;;;;;;8.90;6.00;;;;;;;;;;4224862;33;20069;-82
2023/08/23 04:49:58;;;;;;;12.30;7.32;;;;;;;;;;4228046;33;20400;-81
2023/08/23 04:52:24;;;;;;;10.13;6.75;;;;;;;;;;4221656;34;20062;-80
2023/08/23 04:54:50;;;;;;;9.48;7.30;;;;;;;;;;4194761;34;20055;-80
2023/08/23 04:57:16;;;;;;;10.98;5.90;;;;;;;;;;4192640;34;20420;-81
2023/08/23 04:59:43;;;;;;;13.75;6.15;;;;;;;;;;4194307;34;20055;-81
2023/08/23 05:02:09;;;;;;;13.82;5.87;;;;;;;;;;4197689;34;20058;-81
2023/08/23 05:04:38;;;;;;;10.52;5.30;;;;;;;;;;4207512;34;20051;-78
2023/08/23 05:07:04;;;;;;;7.43;4.28;;;;;;;;;;4209129;34;20144;-80
2023/08/23 05:09:32;;;;;;;6.25;4.97;;;;;;;;;;4177949;34;20056;-80
2023/08/23 05:11:58;;;;;;;6.93;4.12;;;;;;;;;;4191123;34;20047;-80
2023/08/23 05:14:25;;;;;;;9.32;5.00;;;;;;;;;;4194040;34;20056;-79
2023/08/23 05:16:51;;;;;;;11.43;4.47;;;;;;;;;;4195137;34;20047;-79
2023/08/23 05:19:18;;;;;;;9.85;3.30;;;;;;;;;;4191245;34;20075;-79
2023/08/23 05:21:44;;;;;;;9.07;3.80;;;;;;;;;;4195341;34;20082;-79
2023/08/23 05:24:10;;;;;;;6.85;3.75;;;;;;;;;;4194993;34;20418;-79
2023/08/23 05:26:36;;;;;;;6.75;3.17;;;;;;;;;;4193618;34;20463;-79
2023/08/23 05:29:02;;;;;;;3.65;2.80;;;;;;;;;;4198971;34;20043;-79
2023/08/23 05:31:29;;;;;;;6.97;3.10;;;;;;;;;;4192897;34;20040;-79
2023/08/23 05:33:55;;;;;;;4.75;3.20;;;;;;;;;;4194378;34;20455;-78
2023/08/23 05:36:22;;;;;;;7.60;3.05;;;;;;;;;;4203870;34;20047;-80
2023/08/23 05:38:49;;;;;;;6.45;2.97;;;;;;;;;;4207563;34;20051;-82
2023/08/23 05:41:16;;;;;;;6.10;2.90;;;;;;;;;;4175419;34;20056;-81
2023/08/23 05:43:42;;;;;;;5.78;3.22;;;;;;;;;;4180993;34;20500;-78
2023/08/23 05:46:09;;;;;;;5.40;2.83;;;;;;;;;;4181011;34;20060;-80
2023/08/23 05:48:35;;;;;;;6.65;2.90;;;;;;;;;;4180349;34;20077;-80
2023/08/23 05:51:03;;;;;;;4.75;3.58;;;;;;;;;;4187471;34;20073;-81
2023/08/23 05:53:30;;;;;;;6.65;2.80;;;;;;;;;;4160421;34;20126;-79
2023/08/23 05:55:56;;;;;;;10.40;2.80;;;;;;;;;;4165317;34;20780;-79
2023/08/23 05:58:22;;;;;;;3.72;2.65;;;;;;;;;;4161456;34;20110;-80
2023/08/23 06:00:49;;;;;;;7.25;2.55;;;;;;;;;;4162199;34;20036;-78
2023/08/23 06:03:15;;;;;;;2.95;2.20;;;;;;;;;;4153469;34;20052;-79
2023/08/23 06:05:43;;;;;;;3.35;2.42;;;;;;;;;;4151789;34;20314;-81
2023/08/23 06:08:09;;;;;;;6.12;2.33;;;;;;;;;;4153253;34;20048;-79
2023/08/23 06:10:36;;;;;;;6.60;2.50;;;;;;;;;;4156266;34;20376;-79
2023/08/23 06:13:02;;;;;;;8.07;2.60;;;;;;;;;;4155723;34;20069;-80
2023/08/23 06:15:28;;;;;;;9.68;2.50;;;;;;;;;;4151985;34;20056;-80
2023/08/23 06:17:55;;;;;;;3.90;2.17;;;;;;;;;;4160468;34;20445;-80
2023/08/23 06:20:21;;;;;;;7.00;2.03;;;;;;;;;;4186994;34;20061;-77
2023/08/23 06:22:48;;;;;;;5.70;2.25;;;;;;;;;;4179511;34;20062;-79
2023/08/23 06:25:14;;;;;;;8.30;2.47;;;;;;;;;;4181109;34;20048;-80
2023/08/23 06:27:41;;;;;;;3.58;2.08;;;;;;;;;;4177633;34;20115;-80
2023/08/23 06:30:07;;;;;;;8.32;2.25;;;;;;;;;;4183210;34;20059;-80
2023/08/23 06:32:33;;;;;;;3.20;2.00;;;;;;;;;;4208990;34;20055;-78
2023/08/23 06:34:59;;;;;;;12.52;2.25;;;;;;;;;;4235075;33;20084;-78
2023/08/23 06:37:25;;;;;;;4.07;2.33;;;;;;;;;;4240989;33;20042;-79
2023/08/23 06:39:52;;;;;;;5.07;2.22;;;;;;;;;;4239378;33;20072;-81
2023/08/23 06:42:18;;;;;;;9.23;2.22;;;;;;;;;;4245730;33;20104;-78
2023/08/23 06:44:44;;;;;;;3.22;1.77;;;;;;;;;;4240264;33;20097;-79
2023/08/23 06:47:11;;;;;;;3.72;2.12;;;;;;;;;;4244336;33;20486;-80
2023/08/23 06:49:37;;;;;;;5.45;2.97;;;;;;;;;;4242237;33;20371;-82
2023/08/23 06:52:03;;;;;;;12.40;2.35;;;;;;;;;;4239382;33;20050;-80
2023/08/23 06:54:29;;;;;;;2.35;2.10;;;;;;;;;;4241089;33;20059;-80
2023/08/23 06:56:56;;;;;;;6.03;2.05;;;;;;;;;;4239714;33;20790;-80
2023/08/23 06:59:22;;;;;;;3.35;2.20;;;;;;;;;;4240103;33;20038;-81
2023/08/23 07:01:49;;;;;;;7.70;2.25;;;;;;;;;;4238770;33;20054;-80
2023/08/23 07:04:15;;;;;;;3.83;1.67;;;;;;;;;;4237880;33;20034;-79
2023/08/23 07:06:41;;;;;;;2.45;2.05;;;;;;;;;;4195184;34;20191;-79
2023/08/23 07:09:07;;;;;;;2.92;2.08;;;;;;;;;;4195469;34;20124;-77
2023/08/23 07:11:33;;;;;;;2.87;1.92;;;;;;;;;;4210176;34;20154;-79
2023/08/23 07:13:59;;;;;;;3.15;1.58;;;;;;;;;;4207703;34;20078;-78
2023/08/23 07:16:26;;;;;;;4.53;2.10;;;;;;;;;;4208468;34;20249;-79
2023/08/23 07:18:52;;;;;;;3.33;1.80;;;;;;;;;;4214279;34;20082;-79
2023/08/23 07:21:18;;;;;;;2.90;1.80;;;;;;;;;;4209581;34;20051;-78
2023/08/23 07:23:44;;;;;;;8.15;1.58;;;;;;;;;;4210016;34;20118;-78
2023/08/23 07:26:10;;;;;;;5.45;2.22;;;;;;;;;;4208586;34;20047;-83
2023/08/23 07:28:36;;;;;;;3.92;1.70;;;;;;;;;;4206916;34;20060;-77
2023/08/23 07:31:03;;;;;;;2.25;1.90;;;;;;;;;;4209247;34;20204;-79
2023/08/23 07:33:29;;;;;;;5.28;1.58;;;;;;;;;;4211416;34;20052;-81
2023/08/23 07:35:58;;;;;;;2.65;1.58;;;;;;;;;;4210079;34;20047;-79
2023/08/23 07:38:25;;;;;;;5.55;2.28;;;;;;;;;;4232540;33;20194;-79
2023/08/23 07:40:58;;;;;;;3.67;2.12;;;;;;;;;;4242952;33;20042;-79
2023/08/23 07:43:24;;;;;;;2.67;1.92;;;;;;;;;;4238923;33;20068;-77
2023/08/23 07:45:51;;;;;;;2.85;1.48;;;;;;;;;;4240238;33;20050;-79
2023/08/23 07:48:17;;;;;;;2.78;1.70;;;;;;;;;;4238282;33;20081;-80
2023/08/23 07:50:47;;;;;;;6.45;2.00;;;;;;;;;;4238220;33;20097;-79
2023/08/23 07:53:12;;;;;;;7.85;1.50;;;;;;;;;;4237371;33;20054;-77
2023/08/23 07:55:39;;;;;;;5.68;1.70;;;;;;;;;;4241962;33;20065;-81
2023/08/23 07:58:05;;;;;;;10.25;1.90;;;;;;;;;;4248832;33;20049;-79
2023/08/23 08:00:31;;;;;;;2.40;1.60;;;;;;;;;;4239761;33;20072;-82
2023/08/23 08:02:57;;;;;;;7.55;1.92;;;;;;;;;;4236974;33;20127;-79
2023/08/23 08:05:24;;;;;;;2.47;1.48;;;;;;;;;;4238956;33;20355;-80
2023/08/23 08:07:49;;;;;;;3.92;1.75;;;;;;;;;;4239052;33;20055;-79
2023/08/23 08:10:16;;;;;;;7.82;1.62;;;;;;;;;;4239051;33;20128;-79
2023/08/23 08:12:42;;;;;;;8.27;1.92;;;;;;;;;;4239383;33;20457;-80
2023/08/23 08:15:09;;;;;;;3.60;1.58;;;;;;;;;;4238278;33;20076;-80
2023/08/23 08:17:35;;;;;;;5.93;1.95;;;;;;;;;;4239906;33;20058;-80
2023/08/23 08:20:08;;;;;;;2.22;1.30;;;;;;;;;;4238482;33;20427;-81
2023/08/23 08:22:34;;;;;;;4.65;2.08;;;;;;;;;;4247168;33;20050;-83
2023/08/23 08:25:00;;;;;;;5.10;1.33;;;;;;;;;;4239036;33;20301;-80
2023/08/23 08:27:26;;;;;;;3.03;1.67;;;;;;;;;;4239521;33;20038;-81
2023/08/23 08:29:53;;;;;;;5.40;1.83;;;;;;;;;;4238343;33;20047;-81
2023/08/23 08:32:19;;;;;;;6.53;1.55;;;;;;;;;;4238173;33;20039;-82
2023/08/23 08:34:46;;;;;;;2.72;2.10;;;;;;;;;;4235760;33;20064;-85
2023/08/23 08:37:13;;;;;;;4.25;1.62;;;;;;;;;;4240000;33;20919;-78
2023/08/23 08:39:39;;;;;;;5.05;1.67;;;;;;;;;;4237986;33;20042;-80
2023/08/23 08:42:06;;;;;;;3.15;1.52;;;;;;;;;;4241013;33;20093;-79
2023/08/23 08:44:32;;;;;;;4.25;1.60;;;;;;;;;;4236989;33;20043;-79
2023/08/23 08:46:58;;;;;;;5.25;1.48;;;;;;;;;;4197359;34;20061;-79
2023/08/23 08:49:25;;;;;;;2.87;1.30;;;;;;;;;;4207382;34;20061;-77
2023/08/23 08:51:53;;;;;;;5.35;2.00;;;;;;;;;;4205834;34;20540;-79
2023/08/23 08:54:20;;;;;;;9.38;1.92;;;;;;;;;;4209559;34;20060;-78
2023/08/23 08:56:47;;;;;;;5.03;1.15;;;;;;;;;;4207337;34;20039;-78
2023/08/23 08:59:14;;;;;;;2.28;1.98;;;;;;;;;;4209082;34;20073;-78
2023/08/23 09:01:42;;;;;;;3.45;1.30;;;;;;;;;;4208440;34;20096;-78
2023/08/23 09:04:08;;;;;;;3.85;1.45;;;;;;;;;;4209120;34;20058;-78
2023/08/23 09:06:36;;;;;;;2.87;1.27;;;;;;;;;;4208690;34;20058;-78
2023/08/23 09:09:04;;;;;;;4.60;1.80;;;;;;;;;;4207783;34;20051;-79
2023/08/23 09:11:30;;;;;;;10.35;1.80;;;;;;;;;;4204203;34;20087;-78
2023/08/23 09:13:56;;;;;;;3.70;1.35;;;;;;;;;;4196350;34;20043;-78
2023/08/23 09:16:28;;;;;;;3.28;1.52;;;;;;;;;;4188273;34;20063;-78
2023/08/23 09:18:56;;;;;;;3.12;1.40;;;;;;;;;;4229723;33;20042;-80
2023/08/23 09:21:24;;;;;;;7.70;1.80;;;;;;;;;;4238322;33;20047;-76
2023/08/23 09:23:51;;;;;;;4.00;1.50;;;;;;;;;;4236071;33;20058;-78
2023/08/23 09:26:16;;;;;;;1.90;1.27;;;;;;;;;;4245067;33;20372;-77
2023/08/23 09:28:43;;;;;;;3.33;1.75;;;;;;;;;;4246503;33;20381;-77
2023/08/23 09:31:15;;;;;;;5.82;1.40;;;;;;;;;;4242265;33;20364;-76
2023/08/23 09:33:42;;;;;;;2.20;1.30;;;;;;;;;;4239541;33;20753;-76
2023/08/23 09:36:08;;;;;;;3.60;1.87;;;;;;;;;;4243495;33;20072;-77
2023/08/23 09:38:34;;;;;;;3.17;1.55;;;;;;;;;;4239790;33;20078;-78
2023/08/23 09:41:01;;;;;;;3.00;1.52;;;;;;;;;;4239367;33;20508;-77
2023/08/23 09:43:30;;;;;;;1.90;1.65;;;;;;;;;;4238736;33;20094;-76
2023/08/23 09:45:56;;;;;;;7.43;1.92;;;;;;;;;;4238463;33;20066;-76
2023/08/23 09:48:23;;;;;;;2.33;1.50;;;;;;;;;;4219796;33;20065;-77
2023/08/23 09:50:51;;;;;;;5.40;1.62;;;;;;;;;;4220702;34;20039;-76
2023/08/23 09:53:26;;;;;;;2.08;1.58;;;;;;;;;;4221464;34;20051;-78
2023/08/23 09:55:53;;;;;;;4.97;1.37;;;;;;;;;;4220924;33;20373;-77
2023/08/23 09:58:19;;;;;;;3.37;1.65;;;;;;;;;;4223707;33;20059;-77
2023/08/23 10:00:51;;;;;;;3.70;1.33;;;;;;;;;;4220434;34;20039;-80
2023/08/23 10:03:19;;;;;;;3.97;1.40;;;;;;;;;;4220083;33;20106;-82
2023/08/23 10:05:45;;;;;;;6.50;1.27;;;;;;;;;;4223182;33;20054;-80
2023/08/23 10:08:12;;;;;;;2.70;1.35;;;;;;;;;;4222302;33;20102;-80
2023/08/23 10:10:40;;;;;;;3.25;2.17;;;;;;;;;;4227387;33;20090;-80
2023/08/23 10:13:07;;;;;;;3.42;1.83;;;;;;;;;;4226991;33;20127;-81
2023/08/23 10:15:35;;;;;;;4.62;1.67;;;;;;;;;;4223461;34;20080;-80
2023/08/23 10:18:03;;;;;;;5.70;1.73;;;;;;;;;;4223845;34;20059;-81
2023/08/23 10:20:32;;;;;;;11.90;3.05;;;;;;;;;;4226322;33;20047;-79
2023/08/23 10:22:59;;;;;;;1.73;1.17;;;;;;;;;;4225463;33;20054;-79
2023/08/23 10:25:25;;;;;;;5.93;1.60;;;;;;;;;;4223706;33;20136;-80
2023/08/23 10:27:52;;;;;;;2.03;1.42;;;;;;;;;;4224244;34;20050;-80
2023/08/23 10:30:25;;;;;;;2.65;1.45;;;;;;;;;;4225593;33;20112;-80
2023/08/23 10:32:52;;;;;;;5.65;1.90;;;;;;;;;;4224755;33;20065;-80
2023/08/23 10:35:36;;;;;;;1.73;1.40;;;;;;;;;;4237919;33;20117;-78
2023/08/23 10:38:04;;;;;;;5.65;1.50;;;;;;;;;;4240600;33;20055;-80
2023/08/23 10:40:31;;;;;;;4.55;1.25;;;;;;;;;;4239330;33;20051;-79
2023/08/23 10:42:58;;;;;;;3.28;1.52;;;;;;;;;;4234677;33;20051;-81
2023/08/23 10:45:24;;;;;;;11.40;1.35;;;;;;;;;;4239928;33;20180;-79
2023/08/23 10:47:51;;;;;;;3.53;1.35;;;;;;;;;;4244241;33;20046;-76
2023/08/23 10:50:18;;;;;;;1.37;1.27;;;;;;;;;;4237537;33;20070;-79
2023/08/23 10:52:46;;;;;;;2.28;1.30;;;;;;;;;;4227322;33;20085;-82
2023/08/23 10:55:12;;;;;;;2.90;1.87;;;;;;;;;;4230207;33;20437;-78
2023/08/23 10:57:38;;;;;;;1.55;1.40;;;;;;;;;;4223753;33;20241;-78
2023/08/23 11:03:02;;;;;;;1.00;1.00;;;;;;;;;;4284099;28;20046;-79
2023/08/23 11:05:29;;;;;;;2.75;1.73;;;;;;;;;;4233810;33;20107;-80
2023/08/23 11:07:58;;;;;;;11.10;1.20;;;;;;;;;;4221089;34;20047;-78
2023/08/23 11:10:27;;;;;;;1.48;1.20;;;;;;;;;;4218211;34;20090;-81
2023/08/23 11:12:53;;;;;;;2.95;1.10;;;;;;;;;;4223148;34;20116;-79
2023/08/23 11:15:20;;;;;;;1.30;1.20;;;;;;;;;;4223318;34;20487;-79
2023/08/23 11:17:46;;;;;;;1.00;0.95;;;;;;;;;;4222110;33;20039;-81
2023/08/23 11:20:13;;;;;;;2.10;1.10;;;;;;;;;;4223699;34;20059;-79
2023/08/23 11:22:40;;;;;;;1.75;1.10;;;;;;;;;;4224801;33;20060;-79
2023/08/23 11:25:07;;;;;;;4.18;1.60;;;;;;;;;;4237975;33;20061;-80
2023/08/23 11:27:33;;;;;;;4.57;1.30;;;;;;;;;;4249590;33;20038;-79
2023/08/23 11:30:00;;;;;;;3.25;1.23;;;;;;;;;;4249970;33;20058;-78
2023/08/23 11:32:26;;;;;;;2.22;1.70;;;;;;;;;;4250635;33;20541;-80
2023/08/23 11:34:57;;;;;;;2.50;1.67;;;;;;;;;;4250964;33;20053;-80
2023/08/23 11:37:24;;;;;;;3.83;1.30;;;;;;;;;;4251700;33;20365;-81
2023/08/23 11:39:56;;;;;;;2.37;1.52;;;;;;;;;;4250002;33;20050;-80
2023/08/23 11:42:23;;;;;;;1.75;1.52;;;;;;;;;;4226685;33;20042;-80
2023/08/23 11:44:53;;;;;;;2.92;1.30;;;;;;;;;;4237154;33;20429;-80
2023/08/23 11:47:19;;;;;;;2.75;1.17;;;;;;;;;;4235963;33;20076;-80
2023/08/23 11:49:46;;;;;;;1.95;1.50;;;;;;;;;;4236764;33;20108;-80
2023/08/23 11:52:15;;;;;;;4.40;1.60;;;;;;;;;;4220282;33;20095;-79
2023/08/23 11:54:42;;;;;;;5.00;1.60;;;;;;;;;;4227206;33;20046;-79
2023/08/23 11:57:09;;;;;;;3.90;1.30;;;;;;;;;;4229345;33;20062;-78
2023/08/23 11:59:35;;;;;;;3.22;1.55;;;;;;;;;;4229094;33;20177;-78
2023/08/23 12:02:01;;;;;;;1.58;1.40;;;;;;;;;;4227499;33;20109;-79
2023/08/23 12:04:27;;;;;;;1.95;1.58;;;;;;;;;;4224497;33;20050;-80
2023/08/23 12:06:53;;;;;;;2.37;2.17;;;;;;;;;;4225562;33;20084;-79
2023/08/23 12:09:20;;;;;;;4.35;1.30;;;;;;;;;;4222326;34;20042;-79
2023/08/23 12:11:47;;;;;;;3.05;1.37;;;;;;;;;;4221441;34;20111;-79
2023/08/23 12:14:13;;;;;;;1.58;1.48;;;;;;;;;;4248111;33;20046;-79
2023/08/23 12:16:39;;;;;;;3.25;1.60;;;;;;;;;;4252833;33;20038;-79
2023/08/23 12:19:05;;;;;;;7.03;1.95;;;;;;;;;;4252873;33;20085;-80
2023/08/23 12:21:31;;;;;;;1.45;1.33;;;;;;;;;;4252940;33;20441;-81
2023/08/23 12:23:57;;;;;;;1.48;1.40;;;;;;;;;;4236215;33;20042;-81
2023/08/23 12:26:24;;;;;;;2.22;1.60;;;;;;;;;;4223642;34;20048;-80
2023/08/23 12:28:50;;;;;;;1.58;1.50;;;;;;;;;;4215728;34;20114;-79
2023/08/23 12:31:16;;;;;;;1.62;1.50;;;;;;;;;;4222278;34;20022;-79
2023/08/23 12:33:46;;;;;;;5.25;1.23;;;;;;;;;;4221534;34;20505;-79
2023/08/23 12:36:13;;;;;;;2.58;1.95;;;;;;;;;;4213132;34;20215;-79
2023/08/23 12:38:39;;;;;;;8.07;3.22;;;;;;;;;;4209903;34;20063;-78
2023/08/23 12:41:05;;;;;;;2.08;1.73;;;;;;;;;;4209073;34;20120;-78
2023/08/23 12:43:33;;;;;;;13.90;4.30;;;;;;;;;;4180754;34;20051;-78
2023/08/23 12:45:59;;;;;;;2.72;2.50;;;;;;;;;;4189917;34;20123;-79
2023/08/23 12:48:27;;;;;;;5.18;1.95;;;;;;;;;;4194445;34;20108;-78
2023/08/23 12:50:53;;;;;;;3.90;2.37;;;;;;;;;;4194583;34;20031;-78
2023/08/23 12:53:19;;;;;;;8.02;1.55;;;;;;;;;;4181535;34;20225;-81
2023/08/23 12:55:48;;;;;;;2.75;1.65;;;;;;;;;;4205557;34;20083;-80
2023/08/23 12:58:14;;;;;;;3.03;1.95;;;;;;;;;;4199806;34;20844;-81
2023/08/23 13:00:40;;;;;;;2.20;1.65;;;;;;;;;;4200577;34;20139;-80
2023/08/23 13:03:06;;;;;;;5.75;2.03;;;;;;;;;;4179963;34;20058;-80
2023/08/23 13:05:32;;;;;;;4.75;1.65;;;;;;;;;;4182272;34;20089;-78
2023/08/23 13:07:59;;;;;;;4.12;1.80;;;;;;;;;;4180120;34;20082;-80
2023/08/23 13:10:25;;;;;;;2.85;2.10;;;;;;;;;;4180652;34;20545;-80
2023/08/23 13:12:51;;;;;;;2.90;1.92;;;;;;;;;;4167085;34;20078;-81
2023/08/23 13:15:17;;;;;;;5.95;1.48;;;;;;;;;;4182579;34;20203;-80
2023/08/23 13:17:43;;;;;;;6.25;1.75;;;;;;;;;;4180280;34;20053;-80
2023/08/23 13:20:10;;;;;;;2.45;1.60;;;;;;;;;;4165408;34;20035;-80
2023/08/23 13:22:36;;;;;;;1.80;1.70;;;;;;;;;;4151787;34;20447;-79
2023/08/23 13:25:02;;;;;;;3.80;1.42;;;;;;;;;;4141553;34;20423;-78
2023/08/23 13:27:28;;;;;;;4.07;1.75;;;;;;;;;;4137274;34;20045;-78
2023/08/23 13:29:54;;;;;;;4.12;1.40;;;;;;;;;;4137680;34;20064;-77
2023/08/23 13:32:21;;;;;;;4.22;2.40;;;;;;;;;;4139314;34;20048;-78
2023/08/23 13:34:47;;;;;;;3.30;1.65;;;;;;;;;;4139097;34;20068;-77
2023/08/23 13:37:13;;;;;;;1.73;1.60;;;;;;;;;;4139450;34;20083;-78
2023/08/23 13:39:40;;;;;;;4.30;2.37;;;;;;;;;;4139912;34;20067;-77
2023/08/23 13:42:06;;;;;;;2.08;1.33;;;;;;;;;;4143030;34;20070;-78
2023/08/23 13:44:32;;;;;;;2.60;1.85;;;;;;;;;;4161500;34;20205;-81
2023/08/23 13:46:59;;;;;;;4.07;1.33;;;;;;;;;;4171658;34;20049;-78
2023/08/23 13:49:25;;;;;;;1.50;1.08;;;;;;;;;;4168401;34;20115;-77
2023/08/23 13:51:51;;;;;;;3.95;1.35;;;;;;;;;;4205833;34;20051;-77
2023/08/23 13:54:17;;;;;;;3.22;1.33;;;;;;;;;;4243384;33;20079;-78
2023/08/23 13:56:43;;;;;;;3.87;1.50;;;;;;;;;;4254768;33;20054;-79
2023/08/23 13:59:09;;;;;;;1.48;1.37;;;;;;;;;;4223294;34;20080;-79
2023/08/23 14:01:36;;;;;;;8.80;1.35;;;;;;;;;;4223237;34;20066;-77
2023/08/23 14:04:03;;;;;;;2.17;1.20;;;;;;;;;;4221519;34;20452;-78
2023/08/23 14:06:30;;;;;;;2.30;1.27;;;;;;;;;;4205821;34;20061;-78
2023/08/23 14:08:56;;;;;;;5.03;1.33;;;;;;;;;;4202354;34;20603;-86
2023/08/23 14:11:30;;;;;;;5.10;1.40;;;;;;;;;;4205460;34;20080;-79
2023/08/23 14:13:56;;;;;;;1.77;1.48;;;;;;;;;;4205334;34;20051;-80
2023/08/23 14:16:23;;;;;;;6.55;1.37;;;;;;;;;;4209821;34;20047;-79
2023/08/23 14:18:48;;;;;;;2.28;1.50;;;;;;;;;;4209257;34;20505;-82
2023/08/23 14:21:15;;;;;;;7.85;1.60;;;;;;;;;;4216622;34;20055;-80
2023/08/23 14:23:41;;;;;;;4.22;1.62;;;;;;;;;;4212414;34;20035;-80
2023/08/23 14:26:07;;;;;;;4.25;2.10;;;;;;;;;;4211096;34;20098;-80
2023/08/23 14:28:33;;;;;;;1.85;1.30;;;;;;;;;;4209798;34;20027;-80
2023/08/23 14:31:00;;;;;;;7.15;2.20;;;;;;;;;;4220409;34;20513;-79
2023/08/23 14:33:26;;;;;;;1.75;1.50;;;;;;;;;;4210212;34;20126;-81
2023/08/23 14:35:52;;;;;;;4.47;1.60;;;;;;;;;;4211660;34;20080;-80
2023/08/23 14:38:19;;;;;;;4.43;1.20;;;;;;;;;;4221898;34;20035;-80
2023/08/23 14:40:45;;;;;;;7.55;3.50;;;;;;;;;;4217891;33;20085;-83
2023/08/23 14:43:11;;;;;;;4.03;2.40;;;;;;;;;;4196121;34;20375;-82
2023/08/23 14:45:37;;;;;;;5.32;1.77;;;;;;;;;;4197638;34;20047;-82
2023/08/23 14:48:03;;;;;;;5.90;2.00;;;;;;;;;;4196919;34;20646;-81
2023/08/23 14:50:31;;;;;;;6.03;1.23;;;;;;;;;;4195951;34;20043;-82
2023/08/23 14:52:58;;;;;;;5.25;1.70;;;;;;;;;;4194104;34;20040;-82
2023/08/23 14:55:25;;;;;;;1.30;1.20;;;;;;;;;;4197301;34;20052;-81
2023/08/23 14:57:51;;;;;;;3.95;1.20;;;;;;;;;;4196764;34;20430;-80
2023/08/23 15:00:17;;;;;;;2.40;1.48;;;;;;;;;;4196223;34;20393;-79
2023/08/23 15:02:44;;;;;;;3.20;2.62;;;;;;;;;;4195414;34;20070;-80
2023/08/23 15:05:10;;;;;;;1.37;1.27;;;;;;;;;;4196073;34;20081;-80
2023/08/23 15:07:36;;;;;;;1.75;1.65;;;;;;;;;;4197223;34;20051;-80
2023/08/23 15:10:03;;;;;;;3.75;1.20;;;;;;;;;;4197459;34;20077;-79
2023/08/23 15:12:29;;;;;;;9.27;2.05;;;;;;;;;;4206727;34;20069;-79
2023/08/23 15:14:56;;;;;;;5.35;1.58;;;;;;;;;;4208456;34;20069;-79
2023/08/23 15:17:22;;;;;;;4.60;1.12;;;;;;;;;;4210080;34;20051;-79
2023/08/23 15:19:49;;;;;;;3.33;1.33;;;;;;;;;;4213289;33;20061;-79
2023/08/23 15:22:15;;;;;;;3.42;1.30;;;;;;;;;;4240759;33;20086;-81
2023/08/23 15:24:41;;;;;;;1.67;1.17;;;;;;;;;;4238576;33;20055;-80
2023/08/23 15:27:07;;;;;;;10.15;2.12;;;;;;;;;;4238849;33;20091;-81
2023/08/23 15:29:34;;;;;;;4.07;1.40;;;;;;;;;;4237176;33;20048;-80
2023/08/23 15:32:00;;;;;;;7.60;1.33;;;;;;;;;;4238834;33;20062;-80
2023/08/23 15:34:31;;;;;;;4.93;1.60;;;;;;;;;;4238113;33;20058;-80
2023/08/23 15:36:57;;;;;;;2.72;1.33;;;;;;;;;;4241010;33;20064;-80
2023/08/23 15:39:23;;;;;;;1.27;1.20;;;;;;;;;;4251916;33;20054;-80
2023/08/23 15:41:49;;;;;;;1.27;1.25;;;;;;;;;;4253105;33;20064;-79
2023/08/23 15:44:15;;;;;;;4.35;1.37;;;;;;;;;;4251530;33;20103;-80
2023/08/23 15:46:41;;;;;;;5.40;1.55;;;;;;;;;;4250483;33;20376;-83
2023/08/23 15:49:14;;;;;;;2.17;1.52;;;;;;;;;;4251180;33;20065;-80
2023/08/23 15:51:46;;;;;;;2.92;1.25;;;;;;;;;;4252031;33;20604;-80
2023/08/23 15:54:13;;;;;;;3.80;1.25;;;;;;;;;;4252902;33;20050;-81
2023/08/23 15:56:40;;;;;;;4.53;1.10;;;;;;;;;;4244817;33;20064;-79
2023/08/23 15:59:06;;;;;;;1.60;1.50;;;;;;;;;;4237869;33;20469;-79
2023/08/23 16:01:33;;;;;;;5.15;1.50;;;;;;;;;;4242346;33;20097;-79
2023/08/23 16:03:59;;;;;;;6.37;1.62;;;;;;;;;;4250726;33;20092;-80
2023/08/23 16:06:25;;;;;;;2.08;1.48;;;;;;;;;;4238565;33;20070;-81
2023/08/23 16:08:51;;;;;;;2.35;1.55;;;;;;;;;;4236481;33;20079;-80
2023/08/23 16:11:17;;;;;;;8.20;2.08;;;;;;;;;;4239935;33;20054;-80
2023/08/23 16:13:44;;;;;;;1.87;1.75;;;;;;;;;;4239239;33;20076;-81
2023/08/23 16:16:09;;;;;;;2.08;1.60;;;;;;;;;;4254307;33;20050;-80
2023/08/23 16:18:36;;;;;;;7.35;1.42;;;;;;;;;;4252028;33;20470;-81
2023/08/23 16:21:02;;;;;;;1.65;1.37;;;;;;;;;;4254270;33;20041;-81
2023/08/23 16:23:28;;;;;;;2.62;1.95;;;;;;;;;;4263765;33;20089;-80
2023/08/23 16:25:56;;;;;;;2.58;1.80;;;;;;;;;;4260045;33;20058;-79
2023/08/23 16:28:22;;;;;;;2.08;1.73;;;;;;;;;;4254476;33;20067;-79
2023/08/23 16:30:49;;;;;;;1.60;1.60;;;;;;;;;;4252099;33;20037;-81
2023/08/23 16:33:15;;;;;;;2.87;1.90;;;;;;;;;;4254447;33;20269;-80
2023/08/23 16:35:41;;;;;;;4.20;2.12;;;;;;;;;;4252544;33;20446;-79
2023/08/23 16:38:09;;;;;;;4.57;1.80;;;;;;;;;;4262334;33;20415;-80
2023/08/23 16:40:35;;;;;;;3.08;1.45;;;;;;;;;;4261040;33;20085;-79